createdAt,value
2023-05-10T00:02:34.337Z,2.15
2023-05-10T00:07:36.507Z,2.67
2023-05-10T00:12:38.694Z,1.90
2023-05-10T00:17:41.107Z,3.63
2023-05-10T00:22:43.379Z,1.10
2023-05-10T00:27:45.419Z,2.38
2023-05-10T00:32:49.320Z,3.67
2023-05-10T00:37:51.484Z,2.10
2023-05-10T00:42:53.643Z,2.08
2023-05-10T00:47:57.308Z,2.33
2023-05-10T00:53:00.899Z,1.77
2023-05-10T00:58:03.277Z,3.17
2023-05-10T01:03:05.461Z,2.17
2023-05-10T01:08:09.851Z,1.73
2023-05-10T01:13:13.513Z,0.80
2023-05-10T01:23:36.419Z,2.45
2023-05-10T01:28:51.087Z,2.85
2023-05-10T01:34:00.244Z,0.90
2023-05-10T01:39:37.861Z,3.00
2023-05-10T01:44:42.983Z,2.53
2023-05-10T01:49:50.677Z,0.93
2023-05-10T01:55:02.886Z,1.83
2023-05-10T02:00:06.127Z,1.52
2023-05-10T02:05:18.712Z,0.98
2023-05-10T02:10:21.321Z,1.73
2023-05-10T02:15:26.100Z,2.30
2023-05-10T02:20:28.636Z,2.03
2023-05-10T02:25:32.759Z,2.55
2023-05-10T02:30:36.422Z,1.45
2023-05-10T02:40:43.778Z,2.17
2023-05-10T02:45:49.510Z,3.50
2023-05-10T02:50:54.207Z,2.90
2023-05-10T02:55:58.461Z,2.65
2023-05-10T03:01:01.595Z,1.95
2023-05-10T03:06:03.996Z,2.50
2023-05-10T03:11:24.514Z,1.42
2023-05-10T03:16:33.772Z,3.03
2023-05-10T03:21:43.350Z,3.25
2023-05-10T03:26:46.833Z,3.75
2023-05-10T03:31:52.818Z,4.45
2023-05-10T03:36:55.102Z,3.55
2023-05-10T03:41:58.298Z,9.30
2023-05-10T03:47:01.019Z,8.85
2023-05-10T03:52:03.741Z,4.43
2023-05-10T03:57:07.144Z,8.52
2023-05-10T04:02:10.000Z,9.30
2023-05-10T04:07:12.396Z,5.55
2023-05-10T04:12:15.811Z,4.95
2023-05-10T04:17:17.928Z,10.60
2023-05-10T04:22:20.142Z,9.55
2023-05-10T04:27:22.277Z,4.30
2023-05-10T04:32:24.820Z,9.15
2023-05-10T04:37:26.893Z,9.90
2023-05-10T04:42:29.260Z,12.13
2023-05-10T04:47:31.312Z,7.15
2023-05-10T04:52:33.582Z,6.15
2023-05-10T04:57:35.761Z,7.20
2023-05-10T05:02:38.013Z,7.20
2023-05-10T05:07:40.466Z,10.13
2023-05-10T05:12:42.588Z,8.43
2023-05-10T05:17:44.962Z,10.68
2023-05-10T05:22:47.106Z,7.97
2023-05-10T05:27:49.177Z,13.55
2023-05-10T05:32:51.324Z,6.15
2023-05-10T05:37:53.420Z,5.15
2023-05-10T05:42:55.630Z,9.50
2023-05-10T05:47:57.721Z,5.18
2023-05-10T05:52:59.971Z,10.00
2023-05-10T05:58:02.334Z,10.27
2023-05-10T06:03:04.935Z,13.73
2023-05-10T06:08:07.328Z,18.25
2023-05-10T06:13:09.616Z,11.48
2023-05-10T06:18:11.928Z,14.77
2023-05-10T06:23:14.113Z,5.90
2023-05-10T06:28:16.217Z,11.75
2023-05-10T06:33:18.598Z,10.55
2023-05-10T06:38:20.710Z,11.05
2023-05-10T06:43:22.868Z,11.18
2023-05-10T06:48:25.033Z,14.85
2023-05-10T06:53:27.139Z,14.43
2023-05-10T06:58:29.392Z,14.68
2023-05-10T07:03:31.749Z,15.93
2023-05-10T07:08:34.596Z,9.27
2023-05-10T07:13:37.664Z,12.13
2023-05-10T07:18:39.952Z,14.18
2023-05-10T07:23:43.678Z,17.10
2023-05-10T07:28:47.185Z,14.48
2023-05-10T07:33:49.315Z,13.93
2023-05-10T07:38:51.450Z,13.35
2023-05-10T07:43:53.565Z,16.90
2023-05-10T07:48:55.653Z,12.10
2023-05-10T07:53:59.108Z,16.98
2023-05-10T07:59:01.502Z,16.80
2023-05-10T08:04:04.390Z,17.00
2023-05-10T08:09:06.683Z,13.73
2023-05-10T08:14:08.800Z,11.77
2023-05-10T08:19:10.909Z,20.42
2023-05-10T08:24:13.083Z,17.65
2023-05-10T08:29:16.547Z,20.85
2023-05-10T08:34:18.640Z,16.60
2023-05-10T08:39:29.827Z,15.65
2023-05-10T08:44:37.567Z,13.35
2023-05-10T08:49:40.882Z,15.95
2023-05-10T08:54:43.427Z,21.25
2023-05-10T08:59:45.768Z,22.05
2023-05-10T09:04:48.041Z,14.85
2023-05-10T09:09:50.446Z,22.00
2023-05-10T09:14:55.565Z,19.00
2023-05-10T09:20:01.720Z,21.23
2023-05-10T09:25:10.550Z,19.00
2023-05-10T09:30:17.182Z,20.38
2023-05-10T09:35:23.331Z,21.10
2023-05-10T09:40:27.699Z,14.05
2023-05-10T09:45:32.474Z,16.73
2023-05-10T09:50:35.385Z,17.83
2023-05-10T09:55:37.621Z,17.50
2023-05-10T10:00:44.995Z,13.80
2023-05-10T10:05:48.885Z,14.65
2023-05-10T10:10:54.388Z,24.23
2023-05-10T10:15:56.667Z,19.15
2023-05-10T10:20:59.450Z,23.63
2023-05-10T10:26:05.624Z,12.80
2023-05-10T10:31:33.661Z,16.27
2023-05-10T10:36:46.098Z,22.70
2023-05-10T10:41:56.490Z,15.73
2023-05-10T10:47:26.309Z,16.27
2023-05-10T10:52:42.509Z,12.07
2023-05-10T10:57:56.024Z,20.63
2023-05-10T11:03:00.997Z,18.60
2023-05-10T11:08:30.789Z,12.13
2023-05-10T11:13:43.181Z,18.00
2023-05-10T11:19:04.807Z,12.50
2023-05-10T11:24:15.071Z,18.90
2023-05-10T11:29:17.488Z,14.70
2023-05-10T11:34:36.104Z,11.35
2023-05-10T11:39:38.281Z,22.15
2023-05-10T11:44:40.470Z,16.08
2023-05-10T11:49:46.169Z,26.75
2023-05-10T11:54:55.878Z,19.38
2023-05-10T11:59:58.617Z,20.95
2023-05-10T12:05:01.690Z,19.23
2023-05-10T12:10:13.523Z,17.80
2023-05-10T12:15:24.001Z,17.10
2023-05-10T12:20:29.027Z,19.65
2023-05-10T12:25:35.669Z,12.98
2023-05-10T12:30:38.502Z,14.13
2023-05-10T12:35:51.958Z,15.15
2023-05-10T12:40:54.054Z,21.58
2023-05-10T12:45:56.609Z,21.05
2023-05-10T12:50:58.682Z,17.05
2023-05-10T12:56:00.920Z,16.55
2023-05-10T13:01:04.091Z,20.48
2023-05-10T13:06:07.518Z,20.52
2023-05-10T13:11:09.686Z,16.30
2023-05-10T13:16:11.846Z,15.93
2023-05-10T13:21:13.950Z,16.92
2023-05-10T13:26:16.117Z,20.05
2023-05-10T13:31:18.293Z,16.08
2023-05-10T13:36:20.517Z,12.57
2023-05-10T13:41:22.830Z,16.20
2023-05-10T13:46:24.954Z,14.20
2023-05-10T13:51:27.085Z,17.70
2023-05-10T13:56:29.415Z,15.07
2023-05-10T14:01:31.582Z,18.40
2023-05-10T14:06:33.765Z,18.67
2023-05-10T14:11:36.032Z,18.25
2023-05-10T14:16:38.224Z,23.08
2023-05-10T14:21:40.438Z,14.05
2023-05-10T14:26:42.505Z,13.27
2023-05-10T14:31:44.605Z,15.60
2023-05-10T14:36:46.875Z,14.57
2023-05-10T14:41:48.893Z,15.45
2023-05-10T14:46:50.971Z,21.13
2023-05-10T14:51:53.665Z,12.38
2023-05-10T14:56:55.759Z,10.75
2023-05-10T15:01:57.887Z,9.55
2023-05-10T15:07:01.071Z,18.73
2023-05-10T15:12:03.057Z,15.55
2023-05-10T15:17:08.547Z,13.23
2023-05-10T15:22:10.586Z,15.15
2023-05-10T15:27:12.937Z,10.00
2023-05-10T15:32:15.013Z,12.23
2023-05-10T15:37:17.163Z,14.68
2023-05-10T15:42:19.313Z,12.90
2023-05-10T15:47:21.497Z,11.00
2023-05-10T15:52:24.554Z,15.07
2023-05-10T15:57:26.699Z,11.05
2023-05-10T16:02:28.918Z,8.98
2023-05-10T16:07:31.133Z,9.50
2023-05-10T16:12:33.550Z,7.75
2023-05-10T16:17:35.953Z,11.57
2023-05-10T16:22:38.249Z,11.68
2023-05-10T16:27:40.388Z,10.48
2023-05-10T16:32:43.103Z,17.08
2023-05-10T16:37:45.425Z,8.25
2023-05-10T16:42:47.520Z,11.75
2023-05-10T16:47:49.861Z,9.07
2023-05-10T16:52:51.979Z,9.38
2023-05-10T16:57:59.869Z,10.13
2023-05-10T17:03:02.120Z,10.32
2023-05-10T17:08:04.562Z,10.43
2023-05-10T17:13:08.676Z,8.38
2023-05-10T17:18:12.243Z,11.63
2023-05-10T17:23:14.409Z,10.50
2023-05-10T17:28:16.526Z,8.80
2023-05-10T17:33:18.612Z,10.23
2023-05-10T17:38:20.728Z,8.68
2023-05-10T17:43:23.670Z,9.43
2023-05-10T17:48:25.844Z,11.25
2023-05-10T17:53:27.965Z,11.43
2023-05-10T17:58:30.615Z,10.77
2023-05-10T18:03:33.262Z,9.75
2023-05-10T18:08:35.544Z,5.82
2023-05-10T18:13:37.678Z,8.65
2023-05-10T18:18:40.056Z,9.25
2023-05-10T18:23:42.259Z,9.27
2023-05-10T18:28:44.425Z,9.10
2023-05-10T18:33:46.906Z,6.60
2023-05-10T18:38:49.284Z,9.10
2023-05-10T18:43:51.371Z,8.55
2023-05-10T18:48:54.846Z,8.02
2023-05-10T18:53:56.948Z,8.98
2023-05-10T18:58:59.115Z,6.75
2023-05-10T19:04:01.344Z,9.50
2023-05-10T19:09:03.741Z,11.43
2023-05-10T19:14:06.113Z,9.25
2023-05-10T19:19:08.330Z,7.80
2023-05-10T19:24:12.463Z,6.80
2023-05-10T19:29:14.817Z,9.10
2023-05-10T19:34:17.117Z,10.15
2023-05-10T19:39:19.755Z,9.48
2023-05-10T19:44:23.872Z,10.13
2023-05-10T19:49:26.286Z,11.75
2023-05-10T19:54:28.503Z,11.07
2023-05-10T19:59:30.600Z,5.18
2023-05-10T20:04:34.080Z,11.85
2023-05-10T20:09:36.135Z,9.23
2023-05-10T20:14:38.487Z,8.90
2023-05-10T20:19:40.609Z,13.07
2023-05-10T20:24:42.676Z,14.70
2023-05-10T20:29:44.704Z,14.85
2023-05-10T20:34:46.882Z,11.35
2023-05-10T20:39:50.463Z,9.27
2023-05-10T20:44:52.626Z,11.23
2023-05-10T20:49:54.636Z,13.30
2023-05-10T20:54:56.539Z,10.80
2023-05-10T20:59:58.528Z,9.40
2023-05-10T21:05:00.761Z,12.07
2023-05-10T21:10:03.312Z,12.00
2023-05-10T21:15:05.795Z,8.95
2023-05-10T21:20:08.617Z,9.60
2023-05-10T21:25:10.912Z,9.48
2023-05-10T21:30:13.116Z,7.25
2023-05-10T21:35:15.699Z,10.38
2023-05-10T21:40:18.275Z,15.95
2023-05-10T21:45:20.608Z,6.45
2023-05-10T21:50:23.110Z,10.88
2023-05-10T21:55:25.290Z,8.30
2023-05-10T22:00:27.440Z,14.95
2023-05-10T22:05:29.539Z,6.50
2023-05-10T22:10:31.706Z,9.68
2023-05-10T22:15:36.398Z,7.10
2023-05-10T22:20:38.891Z,6.20
2023-05-10T22:25:40.873Z,8.15
2023-05-10T22:30:43.941Z,7.88
2023-05-10T22:35:46.312Z,5.45
2023-05-10T22:40:48.503Z,8.00
2023-05-10T22:45:50.588Z,7.93
2023-05-10T22:50:52.586Z,7.00
2023-05-10T22:55:54.849Z,9.13
2023-05-10T23:00:57.049Z,7.75
2023-05-10T23:05:59.011Z,9.75
2023-05-10T23:11:01.035Z,5.72
2023-05-10T23:16:07.016Z,6.00
2023-05-10T23:21:09.299Z,6.63
2023-05-10T23:26:11.517Z,6.55
2023-05-10T23:31:13.945Z,8.23
2023-05-10T23:36:15.905Z,7.13
2023-05-10T23:41:17.937Z,8.10
2023-05-10T23:46:20.071Z,6.03
2023-05-10T23:51:22.301Z,10.55
2023-05-10T23:56:24.282Z,8.07
